sensor_id;sensor_type;location;lat;lon;timestamp;P1;durP1;ratioP1;P2;durP2;ratioP2
4460;SDS011;2243;48.812;9.232;2023-12-22T00:00:26;3.63;;;1.50;;
4460;SDS011;2243;48.812;9.232;2023-12-22T00:02:57;1.87;;;1.17;;
4460;SDS011;2243;48.812;9.232;2023-12-22T00:05:28;0.97;;;0.97;;
4460;SDS011;2243;48.812;9.232;2023-12-22T00:07:59;1.23;;;1.20;;
4460;SDS011;2243;48.812;9.232;2023-12-22T00:10:30;2.97;;;1.33;;
4460;SDS011;2243;48.812;9.232;2023-12-22T00:13:01;1.70;;;1.20;;
4460;SDS011;2243;48.812;9.232;2023-12-22T00:15:33;2.47;;;1.40;;
4460;SDS011;2243;48.812;9.232;2023-12-22T00:18:04;1.27;;;1.10;;
4460;SDS011;2243;48.812;9.232;2023-12-22T00:20:35;1.87;;;1.50;;
4460;SDS011;2243;48.812;9.232;2023-12-22T00:23:06;3.93;;;1.87;;
4460;SDS011;2243;48.812;9.232;2023-12-22T00:25:37;1.80;;;1.70;;
4460;SDS011;2243;48.812;9.232;2023-12-22T00:28:08;5.13;;;2.13;;
4460;SDS011;2243;48.812;9.232;2023-12-22T00:30:39;3.80;;;1.87;;
4460;SDS011;2243;48.812;9.232;2023-12-22T00:33:10;3.03;;;1.40;;
4460;SDS011;2243;48.812;9.232;2023-12-22T00:35:41;4.93;;;1.63;;
4460;SDS011;2243;48.812;9.232;2023-12-22T00:38:12;2.20;;;1.27;;
4460;SDS011;2243;48.812;9.232;2023-12-22T00:40:43;1.57;;;1.43;;
4460;SDS011;2243;48.812;9.232;2023-12-22T00:43:14;2.10;;;1.30;;
4460;SDS011;2243;48.812;9.232;2023-12-22T00:45:45;3.63;;;1.30;;
4460;SDS011;2243;48.812;9.232;2023-12-22T00:48:16;2.50;;;1.20;;
4460;SDS011;2243;48.812;9.232;2023-12-22T00:50:47;4.37;;;1.33;;
4460;SDS011;2243;48.812;9.232;2023-12-22T00:53:18;2.20;;;1.23;;
4460;SDS011;2243;48.812;9.232;2023-12-22T00:55:49;2.30;;;1.10;;
4460;SDS011;2243;48.812;9.232;2023-12-22T00:58:20;5.27;;;1.60;;
4460;SDS011;2243;48.812;9.232;2023-12-22T01:00:51;2.20;;;1.33;;
4460;SDS011;2243;48.812;9.232;2023-12-22T01:03:21;3.00;;;1.63;;
4460;SDS011;2243;48.812;9.232;2023-12-22T01:05:52;4.83;;;1.97;;
4460;SDS011;2243;48.812;9.232;2023-12-22T01:08:24;2.27;;;1.67;;
4460;SDS011;2243;48.812;9.232;2023-12-22T01:10:55;7.23;;;1.90;;
4460;SDS011;2243;48.812;9.232;2023-12-22T01:13:26;4.63;;;1.40;;
4460;SDS011;2243;48.812;9.232;2023-12-22T01:15:57;5.63;;;2.00;;
4460;SDS011;2243;48.812;9.232;2023-12-22T01:18:27;3.53;;;2.03;;
4460;SDS011;2243;48.812;9.232;2023-12-22T01:21:00;2.93;;;1.80;;
4460;SDS011;2243;48.812;9.232;2023-12-22T01:23:31;4.27;;;1.23;;
4460;SDS011;2243;48.812;9.232;2023-12-22T01:26:02;6.20;;;1.40;;
4460;SDS011;2243;48.812;9.232;2023-12-22T01:28:36;1.80;;;1.70;;
4460;SDS011;2243;48.812;9.232;2023-12-22T01:31:07;1.63;;;1.53;;
4460;SDS011;2243;48.812;9.232;2023-12-22T01:33:38;4.40;;;1.80;;
4460;SDS011;2243;48.812;9.232;2023-12-22T01:36:09;5.03;;;1.77;;
4460;SDS011;2243;48.812;9.232;2023-12-22T01:38:40;2.70;;;1.43;;
4460;SDS011;2243;48.812;9.232;2023-12-22T01:41:11;3.80;;;1.90;;
4460;SDS011;2243;48.812;9.232;2023-12-22T01:43:42;5.77;;;1.43;;
4460;SDS011;2243;48.812;9.232;2023-12-22T01:46:13;2.53;;;1.13;;
4460;SDS011;2243;48.812;9.232;2023-12-22T01:48:45;9.67;;;1.40;;
4460;SDS011;2243;48.812;9.232;2023-12-22T01:51:16;6.57;;;1.57;;
4460;SDS011;2243;48.812;9.232;2023-12-22T01:53:47;3.37;;;1.50;;
4460;SDS011;2243;48.812;9.232;2023-12-22T01:56:18;1.83;;;1.50;;
4460;SDS011;2243;48.812;9.232;2023-12-22T01:58:50;4.13;;;1.30;;
4460;SDS011;2243;48.812;9.232;2023-12-22T02:01:28;2.17;;;1.00;;
4460;SDS011;2243;48.812;9.232;2023-12-22T02:03:59;1.90;;;1.00;;
4460;SDS011;2243;48.812;9.232;2023-12-22T02:06:30;2.97;;;1.20;;
4460;SDS011;2243;48.812;9.232;2023-12-22T02:09:03;1.23;;;1.03;;
4460;SDS011;2243;48.812;9.232;2023-12-22T02:11:34;2.10;;;1.30;;
4460;SDS011;2243;48.812;9.232;2023-12-22T02:14:05;2.33;;;0.77;;
4460;SDS011;2243;48.812;9.232;2023-12-22T02:16:50;1.90;;;0.87;;
4460;SDS011;2243;48.812;9.232;2023-12-22T02:19:40;1.90;;;0.87;;
4460;SDS011;2243;48.812;9.232;2023-12-22T02:22:15;0.80;;;0.80;;
4460;SDS011;2243;48.812;9.232;2023-12-22T02:24:46;1.10;;;0.83;;
4460;SDS011;2243;48.812;9.232;2023-12-22T02:30:22;3.30;;;0.80;;
4460;SDS011;2243;48.812;9.232;2023-12-22T02:32:59;1.33;;;1.13;;
4460;SDS011;2243;48.812;9.232;2023-12-22T02:35:35;2.10;;;0.80;;
4460;SDS011;2243;48.812;9.232;2023-12-22T02:38:08;2.00;;;0.90;;
4460;SDS011;2243;48.812;9.232;2023-12-22T02:40:39;3.07;;;1.43;;
4460;SDS011;2243;48.812;9.232;2023-12-22T02:43:11;1.27;;;1.00;;
4460;SDS011;2243;48.812;9.232;2023-12-22T02:45:42;4.60;;;1.50;;
4460;SDS011;2243;48.812;9.232;2023-12-22T02:48:13;4.60;;;1.13;;
4460;SDS011;2243;48.812;9.232;2023-12-22T02:50:44;3.20;;;1.00;;
4460;SDS011;2243;48.812;9.232;2023-12-22T02:53:15;2.33;;;1.60;;
4460;SDS011;2243;48.812;9.232;2023-12-22T02:55:45;1.33;;;1.10;;
4460;SDS011;2243;48.812;9.232;2023-12-22T02:58:16;2.83;;;1.07;;
4460;SDS011;2243;48.812;9.232;2023-12-22T03:00:47;3.60;;;1.13;;
4460;SDS011;2243;48.812;9.232;2023-12-22T03:03:18;2.63;;;1.80;;
4460;SDS011;2243;48.812;9.232;2023-12-22T03:05:49;2.50;;;1.43;;
4460;SDS011;2243;48.812;9.232;2023-12-22T03:08:20;3.03;;;1.20;;
4460;SDS011;2243;48.812;9.232;2023-12-22T03:10:51;1.57;;;0.97;;
4460;SDS011;2243;48.812;9.232;2023-12-22T03:13:22;3.23;;;1.20;;
4460;SDS011;2243;48.812;9.232;2023-12-22T03:15:53;2.17;;;1.60;;
4460;SDS011;2243;48.812;9.232;2023-12-22T03:18:25;4.27;;;1.40;;
4460;SDS011;2243;48.812;9.232;2023-12-22T03:20:56;3.80;;;1.00;;
4460;SDS011;2243;48.812;9.232;2023-12-22T03:23:27;4.50;;;1.30;;
4460;SDS011;2243;48.812;9.232;2023-12-22T03:26:02;4.03;;;1.33;;
4460;SDS011;2243;48.812;9.232;2023-12-22T03:28:34;3.50;;;1.53;;
4460;SDS011;2243;48.812;9.232;2023-12-22T03:31:05;1.30;;;1.20;;
4460;SDS011;2243;48.812;9.232;2023-12-22T03:33:37;1.67;;;1.23;;
4460;SDS011;2243;48.812;9.232;2023-12-22T03:36:07;3.80;;;1.50;;
4460;SDS011;2243;48.812;9.232;2023-12-22T03:38:38;7.80;;;1.43;;
4460;SDS011;2243;48.812;9.232;2023-12-22T03:41:09;0.83;;;0.80;;
4460;SDS011;2243;48.812;9.232;2023-12-22T03:43:41;4.17;;;1.27;;
4460;SDS011;2243;48.812;9.232;2023-12-22T03:46:12;0.90;;;0.90;;
4460;SDS011;2243;48.812;9.232;2023-12-22T03:48:43;7.43;;;1.37;;
4460;SDS011;2243;48.812;9.232;2023-12-22T03:51:14;3.90;;;0.80;;
4460;SDS011;2243;48.812;9.232;2023-12-22T03:53:45;3.40;;;1.10;;
4460;SDS011;2243;48.812;9.232;2023-12-22T03:56:16;2.53;;;1.37;;
4460;SDS011;2243;48.812;9.232;2023-12-22T03:58:47;1.33;;;1.10;;
4460;SDS011;2243;48.812;9.232;2023-12-22T04:01:18;1.03;;;0.80;;
4460;SDS011;2243;48.812;9.232;2023-12-22T04:03:49;1.60;;;0.97;;
4460;SDS011;2243;48.812;9.232;2023-12-22T04:06:20;1.53;;;1.00;;
4460;SDS011;2243;48.812;9.232;2023-12-22T04:08:51;6.73;;;1.17;;
4460;SDS011;2243;48.812;9.232;2023-12-22T04:11:22;1.50;;;1.27;;
4460;SDS011;2243;48.812;9.232;2023-12-22T04:13:53;11.10;;;2.60;;
4460;SDS011;2243;48.812;9.232;2023-12-22T04:16:24;5.63;;;1.63;;
4460;SDS011;2243;48.812;9.232;2023-12-22T04:18:55;8.97;;;1.30;;
4460;SDS011;2243;48.812;9.232;2023-12-22T04:21:26;2.00;;;1.50;;
4460;SDS011;2243;48.812;9.232;2023-12-22T04:23:57;1.47;;;1.17;;
4460;SDS011;2243;48.812;9.232;2023-12-22T04:26:28;2.30;;;1.50;;
4460;SDS011;2243;48.812;9.232;2023-12-22T04:28:59;3.30;;;1.70;;
4460;SDS011;2243;48.812;9.232;2023-12-22T04:31:30;1.63;;;1.53;;
4460;SDS011;2243;48.812;9.232;2023-12-22T04:34:01;2.60;;;1.27;;
4460;SDS011;2243;48.812;9.232;2023-12-22T04:36:32;1.83;;;1.40;;
4460;SDS011;2243;48.812;9.232;2023-12-22T04:39:03;1.57;;;1.20;;
4460;SDS011;2243;48.812;9.232;2023-12-22T04:41:34;6.40;;;1.40;;
4460;SDS011;2243;48.812;9.232;2023-12-22T04:44:04;3.67;;;1.70;;
4460;SDS011;2243;48.812;9.232;2023-12-22T04:46:35;2.67;;;1.00;;
4460;SDS011;2243;48.812;9.232;2023-12-22T04:49:06;4.77;;;1.37;;
4460;SDS011;2243;48.812;9.232;2023-12-22T04:51:38;1.47;;;1.40;;
4460;SDS011;2243;48.812;9.232;2023-12-22T04:54:09;3.70;;;1.40;;
4460;SDS011;2243;48.812;9.232;2023-12-22T04:56:39;1.60;;;1.50;;
4460;SDS011;2243;48.812;9.232;2023-12-22T04:59:10;4.73;;;1.20;;
4460;SDS011;2243;48.812;9.232;2023-12-22T05:01:41;1.17;;;1.17;;
4460;SDS011;2243;48.812;9.232;2023-12-22T05:04:13;3.23;;;0.87;;
4460;SDS011;2243;48.812;9.232;2023-12-22T05:06:44;1.17;;;1.07;;
4460;SDS011;2243;48.812;9.232;2023-12-22T05:09:15;4.57;;;1.50;;
4460;SDS011;2243;48.812;9.232;2023-12-22T05:11:46;1.53;;;1.10;;
4460;SDS011;2243;48.812;9.232;2023-12-22T05:14:17;6.13;;;2.13;;
4460;SDS011;2243;48.812;9.232;2023-12-22T05:16:48;3.13;;;1.47;;
4460;SDS011;2243;48.812;9.232;2023-12-22T05:19:21;3.90;;;1.50;;
4460;SDS011;2243;48.812;9.232;2023-12-22T05:21:52;3.67;;;1.50;;
4460;SDS011;2243;48.812;9.232;2023-12-22T05:24:26;4.50;;;2.03;;
4460;SDS011;2243;48.812;9.232;2023-12-22T05:26:57;3.40;;;1.60;;
4460;SDS011;2243;48.812;9.232;2023-12-22T05:29:28;2.07;;;1.40;;
4460;SDS011;2243;48.812;9.232;2023-12-22T05:31:59;5.00;;;1.30;;
4460;SDS011;2243;48.812;9.232;2023-12-22T05:34:30;7.83;;;2.10;;
4460;SDS011;2243;48.812;9.232;2023-12-22T05:37:01;9.83;;;1.77;;
4460;SDS011;2243;48.812;9.232;2023-12-22T05:39:33;6.83;;;1.60;;
4460;SDS011;2243;48.812;9.232;2023-12-22T05:42:04;6.30;;;2.47;;
4460;SDS011;2243;48.812;9.232;2023-12-22T05:44:36;3.37;;;1.40;;
4460;SDS011;2243;48.812;9.232;2023-12-22T05:47:09;5.30;;;2.10;;
4460;SDS011;2243;48.812;9.232;2023-12-22T05:49:41;9.07;;;1.93;;
4460;SDS011;2243;48.812;9.232;2023-12-22T05:52:12;4.87;;;1.83;;
4460;SDS011;2243;48.812;9.232;2023-12-22T05:54:43;5.50;;;1.97;;
4460;SDS011;2243;48.812;9.232;2023-12-22T05:57:14;3.83;;;1.63;;
4460;SDS011;2243;48.812;9.232;2023-12-22T05:59:45;5.50;;;1.87;;
4460;SDS011;2243;48.812;9.232;2023-12-22T06:02:16;3.93;;;1.80;;
4460;SDS011;2243;48.812;9.232;2023-12-22T06:04:47;7.27;;;2.23;;
4460;SDS011;2243;48.812;9.232;2023-12-22T06:07:18;6.93;;;2.03;;
4460;SDS011;2243;48.812;9.232;2023-12-22T06:09:50;3.77;;;1.33;;
4460;SDS011;2243;48.812;9.232;2023-12-22T06:12:20;8.03;;;1.37;;
4460;SDS011;2243;48.812;9.232;2023-12-22T06:14:51;2.27;;;1.70;;
4460;SDS011;2243;48.812;9.232;2023-12-22T06:17:22;4.87;;;2.43;;
4460;SDS011;2243;48.812;9.232;2023-12-22T06:19:53;2.70;;;1.73;;
4460;SDS011;2243;48.812;9.232;2023-12-22T06:22:24;5.33;;;1.90;;
4460;SDS011;2243;48.812;9.232;2023-12-22T06:24:55;2.20;;;1.70;;
4460;SDS011;2243;48.812;9.232;2023-12-22T06:27:26;7.43;;;1.60;;
4460;SDS011;2243;48.812;9.232;2023-12-22T06:29:57;8.87;;;2.20;;
4460;SDS011;2243;48.812;9.232;2023-12-22T06:32:28;8.50;;;2.10;;
4460;SDS011;2243;48.812;9.232;2023-12-22T06:34:59;3.83;;;1.60;;
4460;SDS011;2243;48.812;9.232;2023-12-22T06:37:31;4.63;;;1.67;;
4460;SDS011;2243;48.812;9.232;2023-12-22T06:40:02;10.60;;;2.10;;
4460;SDS011;2243;48.812;9.232;2023-12-22T06:42:33;4.20;;;1.53;;
4460;SDS011;2243;48.812;9.232;2023-12-22T06:45:04;7.07;;;1.70;;
4460;SDS011;2243;48.812;9.232;2023-12-22T06:47:35;6.20;;;2.17;;
4460;SDS011;2243;48.812;9.232;2023-12-22T06:50:07;3.50;;;1.70;;
4460;SDS011;2243;48.812;9.232;2023-12-22T06:52:38;2.70;;;1.60;;
4460;SDS011;2243;48.812;9.232;2023-12-22T06:55:09;4.40;;;2.20;;
4460;SDS011;2243;48.812;9.232;2023-12-22T06:57:41;5.17;;;1.70;;
4460;SDS011;2243;48.812;9.232;2023-12-22T07:00:14;3.00;;;1.70;;
4460;SDS011;2243;48.812;9.232;2023-12-22T07:02:46;5.90;;;1.60;;
4460;SDS011;2243;48.812;9.232;2023-12-22T07:07:51;3.83;;;1.53;;
4460;SDS011;2243;48.812;9.232;2023-12-22T07:10:22;1.87;;;1.37;;
4460;SDS011;2243;48.812;9.232;2023-12-22T07:12:53;3.73;;;1.53;;
4460;SDS011;2243;48.812;9.232;2023-12-22T07:15:24;3.03;;;2.00;;
4460;SDS011;2243;48.812;9.232;2023-12-22T07:17:55;3.53;;;1.30;;
4460;SDS011;2243;48.812;9.232;2023-12-22T07:20:26;8.97;;;2.30;;
4460;SDS011;2243;48.812;9.232;2023-12-22T07:22:57;3.43;;;1.40;;
4460;SDS011;2243;48.812;9.232;2023-12-22T07:25:28;5.00;;;2.23;;
4460;SDS011;2243;48.812;9.232;2023-12-22T07:28:00;4.20;;;1.50;;
4460;SDS011;2243;48.812;9.232;2023-12-22T07:30:31;2.40;;;1.27;;
4460;SDS011;2243;48.812;9.232;2023-12-22T07:33:04;2.70;;;1.33;;
4460;SDS011;2243;48.812;9.232;2023-12-22T07:35:35;1.80;;;1.67;;
4460;SDS011;2243;48.812;9.232;2023-12-22T07:38:06;3.80;;;1.40;;
4460;SDS011;2243;48.812;9.232;2023-12-22T07:40:39;4.77;;;1.90;;
4460;SDS011;2243;48.812;9.232;2023-12-22T07:43:10;2.10;;;1.40;;
4460;SDS011;2243;48.812;9.232;2023-12-22T07:45:41;7.93;;;1.70;;
4460;SDS011;2243;48.812;9.232;2023-12-22T07:48:12;3.80;;;1.27;;
4460;SDS011;2243;48.812;9.232;2023-12-22T07:50:44;3.87;;;1.50;;
4460;SDS011;2243;48.812;9.232;2023-12-22T07:53:16;4.50;;;1.60;;
4460;SDS011;2243;48.812;9.232;2023-12-22T07:55:47;5.13;;;1.20;;
4460;SDS011;2243;48.812;9.232;2023-12-22T07:58:18;3.87;;;1.53;;
4460;SDS011;2243;48.812;9.232;2023-12-22T08:00:50;4.30;;;1.27;;
4460;SDS011;2243;48.812;9.232;2023-12-22T08:03:20;5.20;;;1.63;;
4460;SDS011;2243;48.812;9.232;2023-12-22T08:05:51;5.83;;;1.67;;
4460;SDS011;2243;48.812;9.232;2023-12-22T08:08:23;2.50;;;1.10;;
4460;SDS011;2243;48.812;9.232;2023-12-22T08:10:54;5.47;;;1.60;;
4460;SDS011;2243;48.812;9.232;2023-12-22T08:13:25;3.53;;;1.23;;
4460;SDS011;2243;48.812;9.232;2023-12-22T08:15:56;2.87;;;1.10;;
4460;SDS011;2243;48.812;9.232;2023-12-22T08:18:27;1.83;;;1.27;;
4460;SDS011;2243;48.812;9.232;2023-12-22T08:20:58;2.73;;;1.80;;
4460;SDS011;2243;48.812;9.232;2023-12-22T08:23:37;2.50;;;1.60;;
4460;SDS011;2243;48.812;9.232;2023-12-22T08:26:15;2.47;;;1.73;;
4460;SDS011;2243;48.812;9.232;2023-12-22T08:28:49;4.17;;;1.30;;
4460;SDS011;2243;48.812;9.232;2023-12-22T08:31:20;4.33;;;1.37;;
4460;SDS011;2243;48.812;9.232;2023-12-22T08:33:51;3.00;;;1.43;;
4460;SDS011;2243;48.812;9.232;2023-12-22T08:36:22;3.13;;;1.57;;
4460;SDS011;2243;48.812;9.232;2023-12-22T08:38:53;2.77;;;1.83;;
4460;SDS011;2243;48.812;9.232;2023-12-22T08:41:25;9.50;;;2.03;;
4460;SDS011;2243;48.812;9.232;2023-12-22T08:43:57;3.90;;;1.73;;
4460;SDS011;2243;48.812;9.232;2023-12-22T08:46:28;7.57;;;2.90;;
4460;SDS011;2243;48.812;9.232;2023-12-22T08:48:59;5.77;;;2.30;;
4460;SDS011;2243;48.812;9.232;2023-12-22T08:51:31;7.67;;;2.43;;
4460;SDS011;2243;48.812;9.232;2023-12-22T08:54:01;7.27;;;2.50;;
4460;SDS011;2243;48.812;9.232;2023-12-22T08:56:34;20.40;;;3.43;;
4460;SDS011;2243;48.812;9.232;2023-12-22T08:59:05;5.93;;;2.07;;
4460;SDS011;2243;48.812;9.232;2023-12-22T09:01:39;4.30;;;1.90;;
4460;SDS011;2243;48.812;9.232;2023-12-22T09:04:11;6.23;;;2.37;;
4460;SDS011;2243;48.812;9.232;2023-12-22T09:06:42;7.47;;;2.37;;
4460;SDS011;2243;48.812;9.232;2023-12-22T09:09:13;10.13;;;2.10;;
4460;SDS011;2243;48.812;9.232;2023-12-22T09:11:44;10.90;;;3.33;;
4460;SDS011;2243;48.812;9.232;2023-12-22T09:14:15;7.30;;;2.50;;
4460;SDS011;2243;48.812;9.232;2023-12-22T09:16:46;7.93;;;2.20;;
4460;SDS011;2243;48.812;9.232;2023-12-22T09:19:17;6.03;;;2.20;;
4460;SDS011;2243;48.812;9.232;2023-12-22T09:21:48;5.77;;;2.23;;
4460;SDS011;2243;48.812;9.232;2023-12-22T09:24:19;7.13;;;2.60;;
4460;SDS011;2243;48.812;9.232;2023-12-22T09:26:50;15.63;;;3.33;;
4460;SDS011;2243;48.812;9.232;2023-12-22T09:29:21;9.20;;;2.30;;
4460;SDS011;2243;48.812;9.232;2023-12-22T09:31:52;12.93;;;2.70;;
4460;SDS011;2243;48.812;9.232;2023-12-22T09:34:25;5.83;;;1.70;;
4460;SDS011;2243;48.812;9.232;2023-12-22T09:36:57;6.57;;;2.00;;
4460;SDS011;2243;48.812;9.232;2023-12-22T09:39:28;5.77;;;2.37;;
4460;SDS011;2243;48.812;9.232;2023-12-22T09:42:00;7.47;;;2.50;;
4460;SDS011;2243;48.812;9.232;2023-12-22T09:44:31;6.37;;;2.13;;
4460;SDS011;2243;48.812;9.232;2023-12-22T09:47:05;8.27;;;2.87;;
4460;SDS011;2243;48.812;9.232;2023-12-22T09:49:37;12.30;;;3.00;;
4460;SDS011;2243;48.812;9.232;2023-12-22T09:52:11;7.00;;;2.30;;
4460;SDS011;2243;48.812;9.232;2023-12-22T09:54:43;9.30;;;2.80;;
4460;SDS011;2243;48.812;9.232;2023-12-22T09:57:15;5.47;;;2.93;;
4460;SDS011;2243;48.812;9.232;2023-12-22T09:59:57;7.33;;;2.43;;
4460;SDS011;2243;48.812;9.232;2023-12-22T10:02:30;10.80;;;2.40;;
4460;SDS011;2243;48.812;9.232;2023-12-22T10:05:03;7.40;;;2.00;;
4460;SDS011;2243;48.812;9.232;2023-12-22T10:07:35;7.63;;;2.00;;
4460;SDS011;2243;48.812;9.232;2023-12-22T10:10:06;6.63;;;2.40;;
4460;SDS011;2243;48.812;9.232;2023-12-22T10:12:39;13.40;;;3.33;;
4460;SDS011;2243;48.812;9.232;2023-12-22T10:15:12;7.97;;;2.33;;
4460;SDS011;2243;48.812;9.232;2023-12-22T10:17:43;6.90;;;2.23;;
4460;SDS011;2243;48.812;9.232;2023-12-22T10:20:15;11.73;;;2.10;;
4460;SDS011;2243;48.812;9.232;2023-12-22T10:22:46;15.63;;;3.07;;
4460;SDS011;2243;48.812;9.232;2023-12-22T10:25:20;6.80;;;2.30;;
4460;SDS011;2243;48.812;9.232;2023-12-22T10:27:53;11.77;;;2.57;;
4460;SDS011;2243;48.812;9.232;2023-12-22T10:30:24;15.50;;;2.47;;
4460;SDS011;2243;48.812;9.232;2023-12-22T10:32:55;6.43;;;2.70;;
4460;SDS011;2243;48.812;9.232;2023-12-22T10:35:26;6.67;;;2.33;;
4460;SDS011;2243;48.812;9.232;2023-12-22T10:37:58;4.07;;;2.33;;
4460;SDS011;2243;48.812;9.232;2023-12-22T10:40:33;4.73;;;2.23;;
4460;SDS011;2243;48.812;9.232;2023-12-22T10:43:08;17.23;;;2.87;;
4460;SDS011;2243;48.812;9.232;2023-12-22T10:45:40;10.50;;;2.30;;
4460;SDS011;2243;48.812;9.232;2023-12-22T10:48:10;9.50;;;2.60;;
4460;SDS011;2243;48.812;9.232;2023-12-22T10:50:42;4.87;;;1.90;;
4460;SDS011;2243;48.812;9.232;2023-12-22T10:53:14;5.27;;;1.90;;
4460;SDS011;2243;48.812;9.232;2023-12-22T10:55:48;9.83;;;2.93;;
4460;SDS011;2243;48.812;9.232;2023-12-22T10:58:20;4.20;;;1.87;;
4460;SDS011;2243;48.812;9.232;2023-12-22T11:00:52;6.23;;;1.83;;
4460;SDS011;2243;48.812;9.232;2023-12-22T11:03:23;10.40;;;1.30;;
4460;SDS011;2243;48.812;9.232;2023-12-22T11:05:57;5.47;;;1.37;;
4460;SDS011;2243;48.812;9.232;2023-12-22T11:08:30;4.00;;;2.47;;
4460;SDS011;2243;48.812;9.232;2023-12-22T11:11:13;5.13;;;1.40;;
4460;SDS011;2243;48.812;9.232;2023-12-22T11:13:53;2.33;;;1.40;;
4460;SDS011;2243;48.812;9.232;2023-12-22T11:16:30;1.27;;;1.17;;
4460;SDS011;2243;48.812;9.232;2023-12-22T11:19:04;2.97;;;1.43;;
4460;SDS011;2243;48.812;9.232;2023-12-22T11:21:35;3.47;;;1.17;;
4460;SDS011;2243;48.812;9.232;2023-12-22T11:24:07;2.40;;;1.40;;
4460;SDS011;2243;48.812;9.232;2023-12-22T11:26:39;2.27;;;1.23;;
4460;SDS011;2243;48.812;9.232;2023-12-22T11:29:13;4.80;;;1.40;;
4460;SDS011;2243;48.812;9.232;2023-12-22T11:31:47;1.23;;;1.20;;
4460;SDS011;2243;48.812;9.232;2023-12-22T11:34:20;5.03;;;1.60;;
4460;SDS011;2243;48.812;9.232;2023-12-22T11:36:55;1.67;;;1.57;;
4460;SDS011;2243;48.812;9.232;2023-12-22T11:39:29;7.23;;;1.63;;
4460;SDS011;2243;48.812;9.232;2023-12-22T11:42:00;2.30;;;1.00;;
4460;SDS011;2243;48.812;9.232;2023-12-22T11:44:34;3.17;;;1.90;;
4460;SDS011;2243;48.812;9.232;2023-12-22T11:47:08;2.40;;;1.50;;
4460;SDS011;2243;48.812;9.232;2023-12-22T11:49:41;4.70;;;1.13;;
4460;SDS011;2243;48.812;9.232;2023-12-22T11:52:13;2.50;;;1.27;;
4460;SDS011;2243;48.812;9.232;2023-12-22T12:02:55;2.00;;;1.80;;
4460;SDS011;2243;48.812;9.232;2023-12-22T12:05:26;1.20;;;1.10;;
4460;SDS011;2243;48.812;9.232;2023-12-22T12:08:06;2.70;;;1.17;;
4460;SDS011;2243;48.812;9.232;2023-12-22T12:10:53;4.53;;;1.93;;
4460;SDS011;2243;48.812;9.232;2023-12-22T12:13:25;5.13;;;1.07;;
4460;SDS011;2243;48.812;9.232;2023-12-22T12:15:58;7.00;;;1.30;;
4460;SDS011;2243;48.812;9.232;2023-12-22T12:18:31;2.00;;;1.40;;
4460;SDS011;2243;48.812;9.232;2023-12-22T12:21:05;8.50;;;1.97;;
4460;SDS011;2243;48.812;9.232;2023-12-22T12:23:41;1.43;;;1.20;;
4460;SDS011;2243;48.812;9.232;2023-12-22T12:26:12;1.80;;;1.30;;
4460;SDS011;2243;48.812;9.232;2023-12-22T12:28:45;2.90;;;1.00;;
4460;SDS011;2243;48.812;9.232;2023-12-22T12:31:17;1.00;;;1.00;;
4460;SDS011;2243;48.812;9.232;2023-12-22T12:33:48;1.03;;;0.77;;
4460;SDS011;2243;48.812;9.232;2023-12-22T12:36:19;1.33;;;0.70;;
4460;SDS011;2243;48.812;9.232;2023-12-22T12:41:31;2.37;;;0.80;;
4460;SDS011;2243;48.812;9.232;2023-12-22T12:44:07;4.00;;;1.10;;
4460;SDS011;2243;48.812;9.232;2023-12-22T12:46:40;2.13;;;1.00;;
4460;SDS011;2243;48.812;9.232;2023-12-22T12:49:14;0.60;;;0.60;;
4460;SDS011;2243;48.812;9.232;2023-12-22T12:51:46;1.80;;;0.77;;
4460;SDS011;2243;48.812;9.232;2023-12-22T12:54:19;0.83;;;0.60;;
4460;SDS011;2243;48.812;9.232;2023-12-22T12:56:50;2.60;;;0.80;;
4460;SDS011;2243;48.812;9.232;2023-12-22T12:59:21;2.77;;;0.80;;
4460;SDS011;2243;48.812;9.232;2023-12-22T13:01:52;0.80;;;0.67;;
4460;SDS011;2243;48.812;9.232;2023-12-22T13:04:24;1.00;;;0.67;;
4460;SDS011;2243;48.812;9.232;2023-12-22T13:07:08;0.83;;;0.83;;
4460;SDS011;2243;48.812;9.232;2023-12-22T13:09:43;0.80;;;0.80;;
4460;SDS011;2243;48.812;9.232;2023-12-22T13:12:14;0.90;;;0.90;;
4460;SDS011;2243;48.812;9.232;2023-12-22T13:14:45;0.60;;;0.60;;
4460;SDS011;2243;48.812;9.232;2023-12-22T13:17:16;0.77;;;0.77;;
4460;SDS011;2243;48.812;9.232;2023-12-22T13:19:47;0.83;;;0.80;;
4460;SDS011;2243;48.812;9.232;2023-12-22T13:22:20;2.50;;;0.60;;
4460;SDS011;2243;48.812;9.232;2023-12-22T13:24:55;0.80;;;0.80;;
4460;SDS011;2243;48.812;9.232;2023-12-22T13:27:28;0.90;;;0.53;;
4460;SDS011;2243;48.812;9.232;2023-12-22T13:29:58;0.70;;;0.70;;
4460;SDS011;2243;48.812;9.232;2023-12-22T13:32:30;0.60;;;0.60;;
4460;SDS011;2243;48.812;9.232;2023-12-22T13:35:01;0.50;;;0.50;;
4460;SDS011;2243;48.812;9.232;2023-12-22T13:37:33;0.60;;;0.60;;
4460;SDS011;2243;48.812;9.232;2023-12-22T13:40:06;0.50;;;0.50;;
4460;SDS011;2243;48.812;9.232;2023-12-22T13:42:39;0.60;;;0.60;;
4460;SDS011;2243;48.812;9.232;2023-12-22T13:45:11;1.07;;;0.90;;
4460;SDS011;2243;48.812;9.232;2023-12-22T13:47:42;1.10;;;0.90;;
4460;SDS011;2243;48.812;9.232;2023-12-22T13:50:17;1.60;;;0.73;;
4460;SDS011;2243;48.812;9.232;2023-12-22T13:52:51;0.50;;;0.50;;
4460;SDS011;2243;48.812;9.232;2023-12-22T13:55:22;0.70;;;0.70;;
4460;SDS011;2243;48.812;9.232;2023-12-22T13:58:00;0.60;;;0.60;;
4460;SDS011;2243;48.812;9.232;2023-12-22T14:00:31;0.57;;;0.57;;
4460;SDS011;2243;48.812;9.232;2023-12-22T14:03:02;2.27;;;0.67;;
4460;SDS011;2243;48.812;9.232;2023-12-22T14:05:34;0.70;;;0.60;;
4460;SDS011;2243;48.812;9.232;2023-12-22T14:08:05;0.50;;;0.50;;
4460;SDS011;2243;48.812;9.232;2023-12-22T14:10:36;0.90;;;0.90;;
4460;SDS011;2243;48.812;9.232;2023-12-22T14:13:07;1.10;;;1.10;;
4460;SDS011;2243;48.812;9.232;2023-12-22T14:15:38;1.13;;;1.03;;
4460;SDS011;2243;48.812;9.232;2023-12-22T14:18:14;0.70;;;0.70;;
4460;SDS011;2243;48.812;9.232;2023-12-22T14:20:45;0.70;;;0.70;;
4460;SDS011;2243;48.812;9.232;2023-12-22T14:23:16;0.70;;;0.70;;
4460;SDS011;2243;48.812;9.232;2023-12-22T14:25:48;0.60;;;0.60;;
4460;SDS011;2243;48.812;9.232;2023-12-22T14:28:19;0.70;;;0.70;;
4460;SDS011;2243;48.812;9.232;2023-12-22T14:30:50;0.83;;;0.70;;
4460;SDS011;2243;48.812;9.232;2023-12-22T14:33:22;0.50;;;0.50;;
4460;SDS011;2243;48.812;9.232;2023-12-22T14:35:54;0.60;;;0.50;;
4460;SDS011;2243;48.812;9.232;2023-12-22T14:38:24;0.50;;;0.50;;
4460;SDS011;2243;48.812;9.232;2023-12-22T14:40:55;1.27;;;0.60;;
4460;SDS011;2243;48.812;9.232;2023-12-22T14:43:27;0.60;;;0.60;;
4460;SDS011;2243;48.812;9.232;2023-12-22T14:45:58;0.50;;;0.50;;
4460;SDS011;2243;48.812;9.232;2023-12-22T14:48:30;0.40;;;0.40;;
4460;SDS011;2243;48.812;9.232;2023-12-22T14:51:02;0.53;;;0.53;;
4460;SDS011;2243;48.812;9.232;2023-12-22T14:53:33;2.40;;;0.70;;
4460;SDS011;2243;48.812;9.232;2023-12-22T14:56:04;0.60;;;0.60;;
4460;SDS011;2243;48.812;9.232;2023-12-22T14:58:36;0.60;;;0.50;;
4460;SDS011;2243;48.812;9.232;2023-12-22T15:01:12;0.80;;;0.80;;
4460;SDS011;2243;48.812;9.232;2023-12-22T15:03:44;0.60;;;0.60;;
4460;SDS011;2243;48.812;9.232;2023-12-22T15:06:15;0.60;;;0.60;;
4460;SDS011;2243;48.812;9.232;2023-12-22T15:08:46;0.57;;;0.57;;
4460;SDS011;2243;48.812;9.232;2023-12-22T15:11:17;0.50;;;0.50;;
4460;SDS011;2243;48.812;9.232;2023-12-22T15:13:48;0.53;;;0.50;;
4460;SDS011;2243;48.812;9.232;2023-12-22T15:16:19;0.73;;;0.73;;
4460;SDS011;2243;48.812;9.232;2023-12-22T15:18:52;0.53;;;0.53;;
4460;SDS011;2243;48.812;9.232;2023-12-22T15:21:23;0.50;;;0.50;;
4460;SDS011;2243;48.812;9.232;2023-12-22T15:23:54;0.60;;;0.60;;
4460;SDS011;2243;48.812;9.232;2023-12-22T15:26:28;1.30;;;1.20;;
4460;SDS011;2243;48.812;9.232;2023-12-22T15:28:59;0.60;;;0.60;;
4460;SDS011;2243;48.812;9.232;2023-12-22T15:31:31;3.47;;;0.77;;
4460;SDS011;2243;48.812;9.232;2023-12-22T15:34:07;0.60;;;0.60;;
4460;SDS011;2243;48.812;9.232;2023-12-22T15:36:38;0.70;;;0.70;;
4460;SDS011;2243;48.812;9.232;2023-12-22T15:39:09;0.50;;;0.50;;
4460;SDS011;2243;48.812;9.232;2023-12-22T15:41:40;0.60;;;0.60;;
4460;SDS011;2243;48.812;9.232;2023-12-22T15:44:11;0.97;;;0.70;;
4460;SDS011;2243;48.812;9.232;2023-12-22T15:46:42;1.27;;;0.50;;
4460;SDS011;2243;48.812;9.232;2023-12-22T15:49:13;0.53;;;0.53;;
4460;SDS011;2243;48.812;9.232;2023-12-22T15:51:47;0.60;;;0.60;;
4460;SDS011;2243;48.812;9.232;2023-12-22T15:54:21;0.73;;;0.73;;
4460;SDS011;2243;48.812;9.232;2023-12-22T15:56:52;0.70;;;0.70;;
4460;SDS011;2243;48.812;9.232;2023-12-22T15:59:23;0.60;;;0.60;;